createdAt,value
2018-10-11T00:23:04.476Z,9.00
2018-10-11T00:25:34.796Z,9.30
2018-10-11T00:28:06.104Z,9.40
2018-10-11T00:30:38.775Z,9.40
2018-10-11T00:33:10.553Z,9.40
2018-10-11T00:35:41.788Z,9.40
2018-10-11T00:38:13.048Z,9.40
2018-10-11T00:40:43.736Z,9.60
2018-10-11T00:43:14.118Z,9.60
2018-10-11T00:45:45.064Z,9.60
2018-10-11T00:48:18.639Z,9.60
2018-10-11T00:50:49.983Z,9.50
2018-10-11T00:53:21.334Z,9.40
2018-10-11T00:55:52.288Z,9.40
2018-10-11T00:58:23.257Z,9.30
2018-10-11T01:00:54.220Z,9.10
2018-10-11T01:03:25.164Z,9.00
2018-10-11T01:05:55.321Z,8.90
2018-10-11T01:08:26.565Z,8.90
2018-10-11T01:10:58.346Z,8.80
2018-10-11T01:13:30.772Z,8.90
2018-10-11T01:16:02.512Z,8.80
2018-10-11T01:18:32.687Z,8.80
2018-10-11T01:21:03.140Z,8.80
2018-10-11T01:23:34.676Z,8.80
2018-10-11T01:26:05.097Z,8.90
2018-10-11T01:28:36.835Z,8.90
2018-10-11T01:31:12.067Z,9.00
2018-10-11T01:33:42.523Z,9.00
2018-10-11T01:36:13.605Z,9.00
2018-10-11T01:38:43.794Z,9.00
2018-10-11T01:41:15.184Z,9.10
2018-10-11T01:43:45.372Z,9.00
2018-10-11T01:46:16.624Z,9.00
2018-10-11T01:48:49.353Z,9.00
2018-10-11T01:51:19.941Z,9.00
2018-10-11T01:53:51.211Z,8.90
2018-10-11T01:56:22.514Z,8.80
2018-10-11T01:58:53.156Z,8.70
2018-10-11T02:01:24.475Z,8.60
2018-10-11T02:03:56.053Z,8.50
2018-10-11T02:06:26.889Z,8.40
2018-10-11T02:08:57.872Z,8.30
2018-10-11T02:11:29.812Z,8.20
2018-10-11T02:14:00.121Z,8.20
2018-10-11T02:16:30.442Z,8.20
2018-10-11T02:19:02.920Z,8.20
2018-10-11T02:21:34.686Z,8.10
2018-10-11T02:24:04.947Z,8.00
2018-10-11T02:26:36.283Z,8.00
2018-10-11T02:29:08.559Z,7.90
2018-10-11T02:31:42.536Z,7.80
2018-10-11T02:34:13.717Z,7.80
2018-10-11T02:36:45.496Z,7.70
2018-10-11T02:39:16.588Z,7.60
2018-10-11T02:41:48.408Z,7.50
2018-10-11T02:44:18.875Z,7.50
2018-10-11T02:46:50.103Z,7.40
2018-10-11T02:49:23.996Z,7.40
2018-10-11T02:51:59.473Z,7.40
2018-10-11T02:54:31.096Z,7.30
2018-10-11T02:57:06.331Z,7.30
2018-10-11T02:59:38.696Z,7.20
2018-10-11T03:02:16.312Z,7.20
2018-10-11T03:04:51.692Z,7.20
2018-10-11T03:07:36.844Z,7.10
2018-10-11T03:10:30.236Z,7.10
2018-10-11T03:13:07.217Z,7.10
2018-10-11T03:16:10.732Z,7.00
2018-10-11T03:18:45.611Z,7.10
2018-10-11T03:21:19.376Z,7.10
2018-10-11T03:23:54.611Z,7.10
2018-10-11T03:26:28.336Z,7.10
2018-10-11T03:29:00.557Z,7.00
2018-10-11T03:31:33.070Z,7.00
2018-10-11T03:34:05.826Z,6.90
2018-10-11T03:36:37.994Z,6.90
2018-10-11T03:39:12.028Z,6.90
2018-10-11T03:41:49.557Z,6.80
2018-10-11T03:44:25.521Z,6.80
2018-10-11T04:31:17.511Z,6.30
2018-10-11T04:33:50.900Z,6.40
2018-10-11T04:36:25.177Z,6.30
2018-10-11T04:38:59.461Z,6.30
2018-10-11T04:41:34.019Z,6.30
2018-10-11T04:44:09.242Z,6.20
2018-10-11T04:47:04.699Z,6.20
2018-10-11T04:49:36.670Z,6.20
2018-10-11T04:52:08.211Z,6.30
2018-10-11T04:54:38.855Z,6.30
2018-10-11T04:57:09.800Z,6.30
2018-10-11T04:59:42.387Z,6.30
2018-10-11T05:02:13.804Z,6.20
2018-10-11T05:04:44.547Z,6.20
2018-10-11T05:07:15.978Z,6.30
2018-10-11T05:09:57.784Z,6.30
2018-10-11T05:12:29.560Z,6.30
2018-10-11T05:18:12.636Z,6.30
2018-10-11T05:20:45.239Z,6.20
2018-10-11T05:23:48.383Z,6.20
2018-10-11T05:26:19.862Z,6.30
2018-10-11T05:28:51.792Z,6.30
2018-10-11T05:31:23.350Z,6.30
2018-10-11T05:33:54.905Z,6.30
2018-10-11T05:36:44.851Z,6.30
2018-10-11T13:43:26.661Z,29.00
2018-10-11T13:46:00.108Z,28.00
2018-10-11T13:48:28.140Z,27.70
2018-10-11T13:50:58.281Z,27.80
2018-10-11T13:53:33.944Z,27.60
2018-10-11T13:57:30.495Z,27.80
2018-10-11T13:59:58.026Z,28.20
2018-10-11T14:02:29.303Z,27.20
2018-10-11T14:05:00.567Z,27.50
2018-10-11T14:07:31.613Z,27.50
2018-10-11T14:10:07.582Z,27.30
2018-10-11T14:16:05.076Z,26.60
2018-10-11T14:18:39.385Z,26.70
2018-10-11T14:21:11.495Z,26.60
2018-10-11T14:23:41.683Z,26.20
2018-10-11T14:26:13.210Z,26.00
2018-10-11T14:28:43.331Z,25.80
2018-10-11T14:31:14.142Z,25.80
2018-10-11T14:33:45.061Z,25.80
2018-10-11T14:36:18.925Z,25.70
2018-10-11T14:38:50.798Z,25.30
2018-10-11T14:41:20.643Z,24.80
2018-10-11T14:43:51.500Z,24.60
2018-10-11T14:46:26.395Z,24.20
2018-10-11T14:48:57.257Z,23.90
2018-10-11T14:51:28.232Z,23.90
2018-10-11T14:53:59.566Z,23.70
2018-10-11T14:56:30.769Z,23.30
2018-10-11T14:59:02.594Z,22.80
2018-10-11T15:01:33.615Z,22.40
2018-10-11T15:04:05.407Z,21.90
2018-10-11T15:06:35.985Z,21.30
2018-10-11T15:09:08.133Z,20.40
2018-10-11T15:11:39.135Z,20.00
2018-10-11T15:14:10.843Z,19.40
2018-10-11T15:16:41.593Z,19.00
2018-10-11T15:19:12.559Z,18.60
2018-10-11T15:21:44.161Z,18.30
2018-10-11T15:24:20.050Z,17.90
2018-10-11T15:26:50.165Z,17.60
2018-10-11T15:29:26.531Z,17.20
2018-10-11T15:31:56.893Z,17.10
2018-10-11T15:34:27.542Z,16.90
2018-10-11T15:36:58.361Z,16.60
2018-10-11T15:39:29.320Z,16.40
2018-10-11T15:41:59.004Z,16.20
2018-10-11T15:44:29.048Z,16.00
2018-10-11T15:46:59.893Z,15.90
2018-10-11T15:49:30.748Z,15.80
2018-10-11T15:52:01.572Z,15.70
2018-10-11T15:54:36.129Z,15.50
2018-10-11T15:57:07.007Z,15.40
2018-10-11T15:59:37.061Z,15.20
2018-10-11T16:02:06.913Z,15.10
2018-10-11T16:04:38.442Z,14.90
2018-10-11T16:07:09.517Z,14.80
2018-10-11T16:09:40.808Z,14.60
2018-10-11T16:12:10.905Z,14.40
2018-10-11T16:14:42.843Z,14.20
2018-10-11T16:17:14.928Z,14.10
2018-10-11T16:19:50.966Z,14.00
2018-10-11T16:22:21.322Z,13.90
2018-10-11T16:24:54.016Z,13.70
2018-10-11T16:27:27.232Z,13.60
2018-10-11T16:29:58.436Z,13.50
2018-10-11T16:32:28.935Z,13.40
2018-10-11T16:34:59.663Z,13.30
2018-10-11T16:37:30.875Z,13.10
2018-10-11T16:40:02.093Z,13.00
2018-10-11T16:42:32.842Z,12.90
2018-10-11T16:45:03.963Z,12.80
2018-10-11T16:47:35.473Z,12.70
2018-10-11T16:50:10.468Z,12.60
2018-10-11T16:52:41.441Z,12.60
2018-10-11T16:55:12.709Z,12.40
2018-10-11T16:57:44.834Z,12.40
2018-10-11T17:00:15.665Z,12.30
2018-10-11T17:02:46.680Z,12.10
2018-10-11T17:05:17.554Z,12.10
2018-10-11T17:07:47.307Z,12.00
2018-10-11T17:10:18.176Z,11.90
2018-10-11T17:12:48.028Z,11.90
2018-10-11T17:15:19.837Z,11.80
2018-10-11T17:17:50.533Z,11.80
2018-10-11T17:20:21.231Z,11.70
2018-10-11T17:22:51.256Z,11.70
2018-10-11T17:25:21.750Z,11.60
2018-10-11T17:27:52.839Z,11.50
2018-10-11T17:30:23.645Z,11.30
2018-10-11T17:32:53.554Z,11.30
2018-10-11T17:35:24.095Z,11.30
2018-10-11T17:37:53.887Z,11.20
2018-10-11T17:40:24.760Z,11.10
2018-10-11T17:42:55.612Z,11.00
2018-10-11T17:45:26.437Z,11.00
2018-10-11T17:47:56.464Z,11.00
2018-10-11T17:50:27.547Z,10.90
2018-10-11T17:52:58.035Z,10.90
2018-10-11T17:55:28.668Z,10.90
2018-10-11T17:58:00.747Z,10.70
2018-10-11T18:00:31.531Z,10.70
2018-10-11T18:03:02.449Z,10.70
2018-10-11T18:05:33.241Z,10.70
2018-10-11T18:08:04.197Z,10.60
2018-10-11T18:10:34.888Z,10.60
2018-10-11T18:13:05.650Z,10.60
2018-10-11T18:15:37.228Z,10.50
2018-10-11T18:18:08.451Z,10.50
2018-10-11T18:20:39.123Z,10.50
2018-10-11T18:23:09.043Z,10.50
2018-10-11T18:25:42.936Z,10.40
2018-10-11T18:28:17.540Z,10.40
2018-10-11T18:30:48.292Z,10.40
2018-10-11T18:33:19.453Z,10.30
2018-10-11T18:35:51.192Z,10.30
2018-10-11T18:38:22.973Z,10.20
2018-10-11T18:40:53.851Z,10.10
2018-10-11T18:43:24.697Z,10.10
2018-10-11T18:45:55.448Z,10.10
2018-10-11T18:48:26.417Z,10.10
2018-10-11T18:50:57.207Z,10.10
2018-10-11T18:53:27.565Z,10.10
2018-10-11T18:55:57.829Z,10.10
2018-10-11T18:58:29.010Z,10.00
2018-10-11T19:00:59.258Z,10.00
2018-10-11T19:03:30.287Z,10.00
2018-10-11T19:06:06.857Z,10.00
2018-10-11T19:08:37.883Z,9.90
2018-10-11T19:11:07.822Z,9.90
2018-10-11T19:13:37.609Z,9.90
2018-10-11T19:16:08.527Z,9.80
2018-10-11T19:18:38.262Z,9.90
2018-10-11T19:21:12.749Z,9.90
2018-10-11T19:23:45.315Z,9.80
2018-10-11T19:26:15.737Z,9.70
2018-10-11T19:28:54.737Z,9.70
2018-10-11T19:31:30.741Z,9.70
2018-10-11T19:34:01.795Z,9.70
2018-10-11T19:36:42.189Z,9.70
2018-10-11T19:39:16.926Z,9.60
2018-10-11T19:41:47.806Z,9.60
2018-10-11T19:44:17.743Z,9.50
2018-10-11T19:46:48.511Z,9.50
2018-10-11T19:49:19.218Z,9.40
2018-10-11T19:51:50.716Z,9.40
2018-10-11T19:54:20.954Z,9.40
2018-10-11T19:56:53.384Z,9.40
2018-10-11T19:59:24.580Z,9.40
2018-10-11T20:01:55.275Z,9.30
2018-10-11T20:04:25.381Z,9.30
2018-10-11T20:06:55.925Z,9.30
2018-10-11T20:09:25.790Z,9.30
2018-10-11T20:11:55.669Z,9.30
2018-10-11T20:14:26.466Z,9.30
2018-10-11T20:16:57.948Z,9.30
2018-10-11T20:19:29.084Z,9.30
2018-10-11T20:21:58.811Z,9.30
2018-10-11T20:24:30.469Z,9.20
2018-10-11T20:27:00.504Z,9.20
2018-10-11T20:29:31.332Z,9.10
2018-10-11T20:32:01.982Z,9.10
2018-10-11T20:34:34.016Z,9.10
2018-10-11T20:37:03.798Z,9.00
2018-10-11T20:39:34.563Z,9.10
2018-10-11T20:42:05.407Z,9.00
2018-10-11T20:44:36.279Z,9.00
2018-10-11T20:47:07.069Z,9.10
2018-10-11T20:49:36.939Z,9.00
2018-10-11T20:52:06.750Z,8.90
2018-10-11T20:54:36.524Z,8.90
2018-10-11T20:57:07.397Z,8.90
2018-10-11T20:59:38.656Z,9.00
2018-10-11T21:02:09.025Z,8.90
2018-10-11T21:04:39.768Z,8.90
2018-10-11T21:07:09.677Z,8.90
2018-10-11T21:09:40.207Z,8.90
2018-10-11T21:12:10.292Z,8.90
2018-10-11T21:14:41.111Z,9.00
2018-10-11T21:17:11.910Z,8.90
2018-10-11T21:19:41.765Z,8.80
2018-10-11T21:22:12.308Z,8.70
2018-10-11T21:24:41.357Z,8.70
2018-10-11T21:27:11.944Z,8.70
2018-10-11T21:29:42.033Z,8.70
2018-10-11T21:32:12.816Z,8.70
2018-10-11T21:34:42.682Z,8.70
2018-10-11T21:37:13.508Z,8.60
2018-10-11T21:39:43.332Z,8.60
2018-10-11T21:42:14.137Z,8.60
2018-10-11T21:44:45.128Z,8.60
2018-10-11T21:47:15.598Z,8.60
2018-10-11T21:49:46.195Z,8.60
2018-10-11T21:52:16.478Z,8.60
2018-10-11T21:54:46.196Z,8.60
2018-10-11T21:57:16.085Z,8.60
2018-10-11T21:59:45.927Z,8.50
2018-10-11T22:02:16.389Z,8.40
2018-10-11T22:04:45.762Z,8.40
2018-10-11T22:07:16.815Z,8.40
2018-10-11T22:09:47.492Z,8.40
2018-10-11T22:12:18.417Z,8.40
2018-10-11T22:14:49.450Z,8.30
2018-10-11T22:17:20.428Z,8.30
2018-10-11T22:19:50.177Z,8.30
2018-10-11T22:22:21.127Z,8.30
2018-10-11T22:24:51.103Z,8.30
2018-10-11T22:27:22.380Z,8.20
2018-10-11T22:29:52.924Z,8.20
2018-10-11T22:32:23.360Z,8.10
2018-10-11T22:34:53.753Z,8.00
2018-10-11T22:37:24.052Z,8.00
2018-10-11T22:39:53.596Z,7.90
2018-10-11T22:42:24.012Z,7.90
2018-10-11T22:44:54.363Z,7.80
2018-10-11T22:47:25.484Z,7.90
2018-10-11T22:49:55.284Z,7.90
2018-10-11T22:52:26.240Z,7.90
2018-10-11T22:54:56.125Z,7.80
2018-10-11T22:57:27.089Z,7.80
2018-10-11T22:59:57.932Z,7.80
2018-10-11T23:02:28.882Z,7.70
2018-10-11T23:04:58.814Z,7.70
2018-10-11T23:07:29.755Z,7.60
2018-10-11T23:10:01.187Z,7.50
2018-10-11T23:12:31.099Z,7.50
2018-10-11T23:15:02.563Z,7.40
2018-10-11T23:17:32.950Z,7.40
2018-10-11T23:20:04.109Z,7.40
2018-10-11T23:22:34.822Z,7.30
2018-10-11T23:25:05.978Z,7.30
2018-10-11T23:27:35.676Z,7.40
2018-10-11T23:30:06.101Z,7.30
2018-10-11T23:32:37.272Z,7.30
2018-10-11T23:35:08.498Z,7.30
2018-10-11T23:37:39.399Z,7.30
2018-10-11T23:40:11.572Z,7.40
2018-10-11T23:42:42.285Z,7.40
2018-10-11T23:45:13.383Z,7.40
2018-10-11T23:47:44.051Z,7.40
2018-10-11T23:50:14.580Z,7.40
2018-10-11T23:52:44.791Z,7.40
2018-10-11T23:55:16.064Z,7.30
2018-10-11T23:57:46.792Z,7.20
